createdAt,value
2023-01-09T00:00:29.724Z,0.10
2023-01-09T00:02:56.337Z,0.20
2023-01-09T00:05:22.924Z,0.20
2023-01-09T00:07:49.280Z,0.20
2023-01-09T00:10:15.943Z,0.20
2023-01-09T00:12:42.584Z,0.10
2023-01-09T00:15:11.525Z,0.20
2023-01-09T00:17:38.177Z,0.33
2023-01-09T00:20:06.793Z,0.10
2023-01-09T00:22:33.222Z,0.30
2023-01-09T00:24:59.627Z,0.20
2023-01-09T00:27:26.064Z,0.20
2023-01-09T00:29:52.489Z,0.10
2023-01-09T00:32:20.414Z,0.20
2023-01-09T00:34:47.502Z,0.20
2023-01-09T00:37:14.033Z,0.10
2023-01-09T00:39:41.661Z,0.28
2023-01-09T00:42:12.942Z,0.10
2023-01-09T00:44:47.843Z,0.20
2023-01-09T00:47:19.588Z,0.30
2023-01-09T00:49:47.056Z,0.20
2023-01-09T00:52:14.138Z,0.20
2023-01-09T00:54:42.460Z,0.30
2023-01-09T00:57:12.701Z,0.20
2023-01-09T00:59:40.902Z,0.20
2023-01-09T01:02:07.910Z,0.45
2023-01-09T01:04:52.814Z,0.40
2023-01-09T01:07:38.260Z,0.40
2023-01-09T01:10:07.301Z,0.20
2023-01-09T01:12:33.690Z,0.25
2023-01-09T01:15:00.144Z,0.20
2023-01-09T01:17:26.514Z,0.25
2023-01-09T01:19:52.915Z,1.10
2023-01-09T01:22:19.419Z,0.47
2023-01-09T01:24:46.083Z,0.40
2023-01-09T01:27:12.531Z,0.20
2023-01-09T01:29:38.963Z,0.25
2023-01-09T01:32:05.410Z,0.40
2023-01-09T01:34:31.912Z,0.30
2023-01-09T01:36:58.398Z,0.45
2023-01-09T01:39:24.940Z,0.60
2023-01-09T01:41:51.614Z,1.20
2023-01-09T01:44:55.663Z,0.40
2023-01-09T01:47:28.219Z,0.40
2023-01-09T01:49:56.067Z,0.40
2023-01-09T01:52:23.853Z,0.45
2023-01-09T01:54:50.522Z,0.30
2023-01-09T01:57:17.001Z,0.40
2023-01-09T01:59:50.350Z,0.55
2023-01-09T02:02:23.707Z,0.60
2023-01-09T02:04:54.951Z,0.57
2023-01-09T02:07:21.412Z,0.60
2023-01-09T02:09:48.957Z,0.60
2023-01-09T02:12:26.330Z,0.85
2023-01-09T02:14:58.832Z,0.60
2023-01-09T02:17:43.557Z,0.57
2023-01-09T02:20:35.098Z,1.00
2023-01-09T02:23:32.564Z,1.10
2023-01-09T02:26:26.861Z,1.05
2023-01-09T02:29:24.797Z,1.23
2023-01-09T02:32:06.930Z,1.20
2023-01-09T02:34:47.069Z,1.42
2023-01-09T02:37:35.093Z,1.53
2023-01-09T02:40:07.625Z,1.70
2023-01-09T02:42:35.797Z,1.80
2023-01-09T02:45:02.265Z,1.80
2023-01-09T02:47:29.383Z,1.83
2023-01-09T02:50:05.146Z,1.53
2023-01-09T02:52:56.331Z,1.85
2023-01-09T02:55:38.003Z,1.85
2023-01-09T02:58:16.579Z,1.88
2023-01-09T03:01:04.866Z,1.50
2023-01-09T03:03:34.200Z,1.30
2023-01-09T03:06:20.549Z,1.95
2023-01-09T03:08:53.875Z,1.65
2023-01-09T03:11:21.966Z,1.40
2023-01-09T03:13:53.597Z,1.90
2023-01-09T03:16:35.658Z,1.93
2023-01-09T03:19:06.074Z,1.33
2023-01-09T03:21:34.168Z,1.30
2023-01-09T03:24:02.059Z,1.60
2023-01-09T03:26:29.730Z,1.77
2023-01-09T03:28:56.187Z,1.30
2023-01-09T03:31:23.070Z,1.88
2023-01-09T03:33:49.857Z,1.48
2023-01-09T03:36:18.995Z,1.40
2023-01-09T03:38:45.629Z,1.48
2023-01-09T03:41:12.467Z,1.37
2023-01-09T03:43:39.196Z,1.48
2023-01-09T03:46:05.865Z,1.35
2023-01-09T03:48:32.374Z,1.60
2023-01-09T03:50:58.850Z,1.38
2023-01-09T03:53:26.728Z,1.30
2023-01-09T03:55:55.537Z,1.50
2023-01-09T03:58:23.322Z,1.13
2023-01-09T04:00:50.789Z,1.25
2023-01-09T04:03:19.913Z,1.52
2023-01-09T04:05:48.157Z,1.27
2023-01-09T04:08:14.853Z,1.08
2023-01-09T04:10:44.973Z,1.20
2023-01-09T04:13:11.740Z,1.10
2023-01-09T04:15:38.353Z,1.10
2023-01-09T04:18:04.871Z,1.10
2023-01-09T04:20:32.085Z,1.10
2023-01-09T04:22:59.672Z,1.15
2023-01-09T04:25:26.663Z,0.90
2023-01-09T04:27:53.136Z,1.10
2023-01-09T04:30:20.013Z,1.00
2023-01-09T04:32:46.416Z,1.00
2023-01-09T04:35:13.127Z,0.85
2023-01-09T04:37:39.655Z,0.80
2023-01-09T04:40:13.362Z,1.00
2023-01-09T04:42:40.157Z,0.90
2023-01-09T04:45:08.527Z,0.80
2023-01-09T04:47:35.266Z,0.68
2023-01-09T04:50:02.028Z,0.82
2023-01-09T04:52:28.685Z,0.77
2023-01-09T04:54:55.255Z,0.80
2023-01-09T04:57:21.746Z,0.70
2023-01-09T04:59:48.221Z,0.90
2023-01-09T05:02:14.784Z,0.80
2023-01-09T05:04:42.028Z,0.80
2023-01-09T05:07:08.443Z,1.37
2023-01-09T05:09:36.067Z,0.75
2023-01-09T05:12:02.678Z,0.80
2023-01-09T05:14:29.156Z,0.77
2023-01-09T05:16:55.653Z,0.63
2023-01-09T05:19:22.617Z,0.60
2023-01-09T05:21:49.181Z,0.50
2023-01-09T05:24:15.584Z,0.47
2023-01-09T05:26:41.934Z,0.40
2023-01-09T05:29:09.257Z,0.35
2023-01-09T05:31:35.719Z,0.57
2023-01-09T05:34:02.187Z,0.50
2023-01-09T05:36:29.278Z,0.63
2023-01-09T05:38:57.773Z,0.38
2023-01-09T05:41:26.169Z,0.40
2023-01-09T05:43:52.626Z,0.50
2023-01-09T05:46:19.143Z,0.47
2023-01-09T05:48:45.639Z,0.20
2023-01-09T05:51:12.547Z,0.40
2023-01-09T05:53:39.059Z,0.30
2023-01-09T05:56:05.735Z,0.37
2023-01-09T05:58:32.184Z,0.30
2023-01-09T06:00:59.079Z,0.80
2023-01-09T06:03:25.576Z,0.40
2023-01-09T06:05:52.019Z,0.30
2023-01-09T06:08:18.479Z,0.30
2023-01-09T06:10:46.195Z,0.60
2023-01-09T06:13:12.791Z,0.40
2023-01-09T06:15:39.354Z,0.50
2023-01-09T06:18:05.827Z,0.63
2023-01-09T06:20:32.389Z,0.27
2023-01-09T06:22:58.808Z,0.50
2023-01-09T06:25:25.240Z,0.40
2023-01-09T06:27:54.564Z,0.60
2023-01-09T06:30:21.461Z,0.43
2023-01-09T06:32:49.757Z,0.40
2023-01-09T06:35:20.742Z,0.52
2023-01-09T06:37:48.184Z,0.70
2023-01-09T06:40:15.484Z,0.57
2023-01-09T06:42:45.577Z,0.60
2023-01-09T06:45:12.966Z,0.40
2023-01-09T06:47:39.446Z,0.40
2023-01-09T06:50:06.840Z,0.40
2023-01-09T06:52:33.254Z,0.55
2023-01-09T06:54:59.705Z,0.70
2023-01-09T06:57:26.506Z,0.80
2023-01-09T06:59:53.139Z,0.68
2023-01-09T07:02:21.634Z,0.57
2023-01-09T07:04:48.419Z,0.40
2023-01-09T07:07:15.082Z,0.22
2023-01-09T07:09:41.548Z,0.50
2023-01-09T07:12:07.957Z,0.50
2023-01-09T07:14:34.432Z,0.40
2023-01-09T07:17:00.803Z,0.95
2023-01-09T07:19:27.426Z,0.50
2023-01-09T07:21:53.891Z,0.50
2023-01-09T07:24:20.228Z,0.70
2023-01-09T07:26:46.632Z,0.70
2023-01-09T07:29:13.153Z,0.65
2023-01-09T07:31:39.901Z,0.73
2023-01-09T07:34:06.449Z,0.60
2023-01-09T07:36:33.021Z,0.60
2023-01-09T07:38:59.424Z,0.70
2023-01-09T07:41:25.862Z,0.70
2023-01-09T07:43:52.266Z,0.68
2023-01-09T07:46:18.781Z,0.87
2023-01-09T07:48:45.202Z,0.80
2023-01-09T07:51:11.770Z,1.02
2023-01-09T07:53:38.357Z,1.10
2023-01-09T07:56:05.149Z,1.00
2023-01-09T07:58:31.614Z,1.30
2023-01-09T08:00:58.074Z,1.70
2023-01-09T08:03:24.525Z,1.20
2023-01-09T08:05:51.664Z,1.00
2023-01-09T08:08:18.194Z,1.67
2023-01-09T08:10:44.688Z,1.40
2023-01-09T08:13:11.249Z,1.42
2023-01-09T08:15:37.829Z,1.27
2023-01-09T08:18:04.358Z,1.40
2023-01-09T08:20:31.051Z,1.05
2023-01-09T08:22:57.614Z,1.03
2023-01-09T08:25:24.469Z,1.10
2023-01-09T08:27:51.002Z,1.15
2023-01-09T08:30:18.132Z,0.70
2023-01-09T08:32:49.348Z,0.90
2023-01-09T08:35:15.801Z,0.60
2023-01-09T08:37:46.878Z,0.70
2023-01-09T08:40:15.204Z,0.55
2023-01-09T08:43:00.944Z,0.60
2023-01-09T08:45:46.154Z,0.47
2023-01-09T08:48:12.696Z,0.30
2023-01-09T08:50:39.186Z,0.40
2023-01-09T08:53:05.631Z,0.40
2023-01-09T08:55:32.059Z,0.30
2023-01-09T08:57:58.522Z,0.35
2023-01-09T09:00:26.299Z,0.33
2023-01-09T09:02:54.400Z,0.40
2023-01-09T09:05:22.170Z,0.30
2023-01-09T09:07:49.947Z,0.47
2023-01-09T09:10:17.421Z,0.40
2023-01-09T09:12:44.287Z,0.20
2023-01-09T09:15:20.047Z,0.30
2023-01-09T09:17:49.404Z,0.30
2023-01-09T09:20:16.986Z,0.20
2023-01-09T09:22:46.496Z,0.20
2023-01-09T09:25:13.186Z,0.13
2023-01-09T09:27:39.953Z,0.20
2023-01-09T09:30:07.418Z,0.20
2023-01-09T09:32:33.863Z,0.20
2023-01-09T09:35:00.277Z,0.65
2023-01-09T09:37:26.885Z,0.20
2023-01-09T09:39:53.229Z,0.38
2023-01-09T09:43:11.014Z,0.17
2023-01-09T09:45:43.073Z,0.20
2023-01-09T09:48:12.532Z,0.30
2023-01-09T09:50:51.315Z,0.20
2023-01-09T09:53:32.168Z,0.20
2023-01-09T09:55:58.659Z,0.20
2023-01-09T09:58:31.030Z,0.20
2023-01-09T10:00:59.994Z,0.10
2023-01-09T10:03:34.787Z,0.20
2023-01-09T10:06:07.641Z,0.20
2023-01-09T10:08:47.803Z,0.10
2023-01-09T10:11:43.012Z,0.10
2023-01-09T10:14:23.283Z,0.20
2023-01-09T10:17:03.352Z,0.40
2023-01-09T10:19:59.783Z,0.20
2023-01-09T10:22:54.214Z,0.22
2023-01-09T10:25:26.803Z,0.20
2023-01-09T10:28:21.058Z,0.55
2023-01-09T10:30:52.922Z,0.47
2023-01-09T10:33:50.922Z,0.40
2023-01-09T10:36:43.873Z,0.70
2023-01-09T10:39:26.543Z,0.77
2023-01-09T10:41:58.123Z,0.45
2023-01-09T10:44:38.876Z,0.40
2023-01-09T10:47:17.251Z,0.47
2023-01-09T10:49:45.846Z,0.50
2023-01-09T10:52:18.035Z,0.50
2023-01-09T10:54:48.538Z,0.63
2023-01-09T10:57:33.924Z,0.50
2023-01-09T11:00:00.659Z,0.32
2023-01-09T11:02:33.755Z,0.40
2023-01-09T11:05:00.302Z,0.20
2023-01-09T11:07:31.609Z,0.50
2023-01-09T11:10:04.011Z,0.20
2023-01-09T11:12:32.979Z,0.40
2023-01-09T11:15:20.294Z,0.47
2023-01-09T11:17:47.961Z,0.10
2023-01-09T11:20:23.237Z,0.25
2023-01-09T11:22:52.708Z,0.20
2023-01-09T11:25:22.359Z,0.30
2023-01-09T11:28:18.364Z,0.43
2023-01-09T11:31:01.620Z,0.20
2023-01-09T11:33:31.747Z,0.43
2023-01-09T11:36:11.097Z,0.50
2023-01-09T11:38:46.743Z,0.30
2023-01-09T11:41:18.723Z,0.55
2023-01-09T11:43:48.355Z,0.65
2023-01-09T11:46:30.305Z,0.60
2023-01-09T11:48:58.514Z,0.63
2023-01-09T11:51:28.536Z,0.65
2023-01-09T11:54:02.220Z,0.40
2023-01-09T11:56:29.859Z,0.40
2023-01-09T11:58:56.342Z,0.50
2023-01-09T12:01:39.049Z,0.60
2023-01-09T12:04:25.032Z,0.40
2023-01-09T12:07:19.459Z,0.40
2023-01-09T12:10:19.986Z,0.45
2023-01-09T12:13:11.279Z,0.40
2023-01-09T12:15:56.903Z,0.70
2023-01-09T12:19:00.471Z,0.50
2023-01-09T12:21:51.423Z,0.70
2023-01-09T12:24:42.543Z,0.50
2023-01-09T12:27:33.836Z,0.70
2023-01-09T12:30:26.746Z,0.70
2023-01-09T12:33:26.352Z,0.43
2023-01-09T12:36:07.591Z,0.38
2023-01-09T12:38:48.257Z,0.30
2023-01-09T12:41:36.768Z,0.20
2023-01-09T12:44:06.221Z,0.30
2023-01-09T12:47:02.560Z,0.70
2023-01-09T12:49:39.402Z,0.30
2023-01-09T12:52:20.442Z,0.90
2023-01-09T12:54:57.371Z,0.52
2023-01-09T12:57:31.727Z,0.70
2023-01-09T13:00:18.745Z,0.40
2023-01-09T13:03:07.223Z,0.50
2023-01-09T13:05:44.271Z,0.25
2023-01-09T13:08:19.645Z,1.05
2023-01-09T13:10:49.367Z,0.33
2023-01-09T13:13:22.968Z,0.70
2023-01-09T13:15:54.287Z,0.60
2023-01-09T13:18:41.036Z,0.55
2023-01-09T13:21:08.659Z,0.60
2023-01-09T13:24:15.520Z,1.47
2023-01-09T13:26:43.687Z,0.50
2023-01-09T13:29:18.180Z,0.57
2023-01-09T13:31:54.014Z,0.47
2023-01-09T13:34:26.821Z,0.70
2023-01-09T13:36:55.984Z,0.63
2023-01-09T13:39:28.565Z,0.47
2023-01-09T13:42:17.898Z,0.50
2023-01-09T13:44:47.298Z,0.30
2023-01-09T13:47:25.305Z,0.65
2023-01-09T13:49:51.817Z,0.63
2023-01-09T13:52:24.459Z,1.20
2023-01-09T13:55:00.140Z,0.32
2023-01-09T13:57:43.085Z,0.60
2023-01-09T14:00:12.606Z,0.90
2023-01-09T14:02:38.971Z,0.50
2023-01-09T14:05:17.357Z,0.60
2023-01-09T14:07:45.730Z,0.77
2023-01-09T14:10:27.644Z,0.70
2023-01-09T14:12:56.769Z,0.57
2023-01-09T14:15:30.969Z,0.70
2023-01-09T14:18:02.667Z,0.65
2023-01-09T14:20:41.681Z,0.77
2023-01-09T14:23:45.648Z,0.98
2023-01-09T14:25:56.164Z,0.40
2023-01-09T14:28:24.585Z,0.40
2023-01-09T14:30:54.092Z,0.50
2023-01-09T14:33:20.610Z,0.63
2023-01-09T14:36:05.164Z,0.52
2023-01-09T14:38:52.683Z,0.60
2023-01-09T14:42:00.536Z,0.60
2023-01-09T14:44:32.353Z,0.65
2023-01-09T14:47:06.688Z,0.75
2023-01-09T14:49:33.084Z,0.70
2023-01-09T14:52:04.029Z,1.63
2023-01-09T14:54:44.245Z,0.60
2023-01-09T14:57:25.354Z,0.90
2023-01-09T14:59:56.574Z,0.95
2023-01-09T15:02:23.938Z,0.60
2023-01-09T15:04:50.707Z,0.70
2023-01-09T15:07:25.916Z,0.40
2023-01-09T15:09:52.427Z,0.50
2023-01-09T15:12:22.195Z,0.50
2023-01-09T15:14:55.873Z,0.75
2023-01-09T15:17:26.793Z,0.35
2023-01-09T15:19:54.095Z,0.50
2023-01-09T15:22:36.275Z,0.70
2023-01-09T15:25:37.776Z,0.60
2023-01-09T15:28:23.575Z,0.60
2023-01-09T15:31:01.054Z,0.50
2023-01-09T15:33:27.916Z,0.47
2023-01-09T15:36:00.300Z,0.60
2023-01-09T15:38:28.737Z,0.52
2023-01-09T15:41:00.331Z,0.60
2023-01-09T15:43:30.101Z,0.90
2023-01-09T15:45:57.960Z,0.97
2023-01-09T15:48:31.753Z,0.50
2023-01-09T15:51:10.663Z,0.60
2023-01-09T15:53:37.161Z,0.90
2023-01-09T15:56:13.710Z,0.60
2023-01-09T15:58:47.048Z,0.57
2023-01-09T16:01:30.383Z,0.40
2023-01-09T16:04:09.744Z,0.63
2023-01-09T16:06:45.223Z,0.50
2023-01-09T16:09:29.696Z,0.43
2023-01-09T16:12:04.173Z,0.67
2023-01-09T16:14:36.082Z,0.40
2023-01-09T16:17:07.979Z,0.98
2023-01-09T16:19:50.946Z,0.50
2023-01-09T16:22:26.587Z,0.63
2023-01-09T16:24:54.847Z,0.30
2023-01-09T16:27:24.118Z,0.40
2023-01-09T16:29:57.925Z,0.77
2023-01-09T16:32:55.409Z,1.33
2023-01-09T16:35:26.154Z,0.85
2023-01-09T16:37:52.489Z,1.07
2023-01-09T16:40:21.016Z,0.55
2023-01-09T16:43:03.731Z,0.85
2023-01-09T16:45:35.103Z,0.55
2023-01-09T16:48:09.040Z,0.68
2023-01-09T16:50:35.571Z,0.40
2023-01-09T16:53:10.153Z,0.32
2023-01-09T16:55:38.358Z,0.80
2023-01-09T16:58:04.841Z,0.68
2023-01-09T17:00:32.008Z,0.43
2023-01-09T17:02:58.456Z,0.40
2023-01-09T17:05:24.899Z,0.55
2023-01-09T17:07:51.447Z,0.73
2023-01-09T17:10:21.994Z,2.05
2023-01-09T17:12:49.046Z,2.63
2023-01-09T17:15:16.283Z,1.60
2023-01-09T17:17:42.665Z,1.50
2023-01-09T17:20:17.490Z,1.58
2023-01-09T17:22:44.329Z,1.77
2023-01-09T17:25:33.181Z,2.00
2023-01-09T17:28:22.367Z,1.83
2023-01-09T17:30:48.988Z,1.40
2023-01-09T17:33:18.980Z,1.67
2023-01-09T17:35:45.683Z,0.93
2023-01-09T17:38:16.052Z,0.80
2023-01-09T17:40:43.633Z,1.53
2023-01-09T17:43:10.315Z,2.50
2023-01-09T17:45:41.333Z,1.63
2023-01-09T17:48:19.615Z,1.27
2023-01-09T17:50:47.000Z,0.60
2023-01-09T17:53:14.413Z,1.10
2023-01-09T17:55:41.951Z,1.75
2023-01-09T17:58:23.418Z,1.10
2023-01-09T18:00:50.001Z,1.92
2023-01-09T18:03:16.465Z,1.00
2023-01-09T18:05:43.172Z,1.53
2023-01-09T18:08:13.317Z,0.82
2023-01-09T18:10:40.469Z,1.92
2023-01-09T18:13:06.932Z,1.77
2023-01-09T18:15:33.340Z,0.98
2023-01-09T18:17:59.756Z,1.40
2023-01-09T18:20:26.153Z,0.98
2023-01-09T18:22:52.692Z,0.60
2023-01-09T18:25:19.044Z,0.90
2023-01-09T18:27:45.532Z,1.20
2023-01-09T18:30:12.327Z,1.60
2023-01-09T18:32:38.753Z,1.55
2023-01-09T18:35:05.462Z,1.48
2023-01-09T18:37:31.932Z,1.20
2023-01-09T18:39:59.500Z,1.35
2023-01-09T18:42:25.984Z,1.80
2023-01-09T18:44:52.352Z,1.27
2023-01-09T18:47:18.844Z,5.78
2023-01-09T18:49:45.212Z,7.20
2023-01-09T18:52:11.566Z,1.48
2023-01-09T18:54:38.430Z,2.60
2023-01-09T18:57:05.112Z,4.32
2023-01-09T18:59:31.518Z,2.00
2023-01-09T19:01:58.412Z,1.70
2023-01-09T19:04:26.933Z,0.90
2023-01-09T19:06:55.992Z,1.30
2023-01-09T19:09:22.455Z,1.30
2023-01-09T19:11:48.993Z,0.60
2023-01-09T19:14:15.628Z,1.13
2023-01-09T19:16:42.364Z,0.88
2023-01-09T19:19:08.711Z,1.03
2023-01-09T19:21:35.541Z,0.65
2023-01-09T19:24:02.084Z,1.02
2023-01-09T19:26:28.919Z,0.80
2023-01-09T19:28:57.342Z,2.20
2023-01-09T19:31:25.671Z,2.77
2023-01-09T19:33:52.794Z,1.92
2023-01-09T19:36:20.009Z,1.63
2023-01-09T19:38:46.739Z,1.27
2023-01-09T19:41:19.515Z,0.85
2023-01-09T19:43:47.089Z,2.67
2023-01-09T19:46:18.755Z,1.60
2023-01-09T19:48:46.358Z,1.85
2023-01-09T19:51:15.551Z,1.60
2023-01-09T19:53:42.205Z,2.33
2023-01-09T19:56:13.886Z,1.07
2023-01-09T19:58:47.768Z,1.42
2023-01-09T20:01:17.640Z,1.20
2023-01-09T20:03:46.624Z,1.17
2023-01-09T20:06:17.596Z,1.20
2023-01-09T20:08:45.321Z,1.30
2023-01-09T20:11:11.941Z,1.42
2023-01-09T20:13:38.502Z,1.00
2023-01-09T20:16:05.739Z,1.08
2023-01-09T20:18:33.945Z,1.58
2023-01-09T20:21:00.698Z,1.53
2023-01-09T20:23:28.602Z,1.48
2023-01-09T20:25:56.972Z,2.50
2023-01-09T20:28:25.239Z,2.45
2023-01-09T20:30:53.761Z,2.30
2023-01-09T20:33:21.802Z,6.47
2023-01-09T20:35:48.516Z,2.60
2023-01-09T20:38:15.132Z,1.50
2023-01-09T20:40:44.527Z,1.73
2023-01-09T20:43:12.878Z,1.13
2023-01-09T20:45:40.505Z,2.70
2023-01-09T20:48:08.229Z,1.02
2023-01-09T20:50:34.872Z,0.85
2023-01-09T20:53:01.423Z,0.57
2023-01-09T20:55:29.279Z,0.80
2023-01-09T20:57:55.899Z,0.73
2023-01-09T21:00:24.897Z,0.70
2023-01-09T21:02:51.349Z,0.70
2023-01-09T21:05:17.848Z,1.50
2023-01-09T21:07:44.393Z,0.82
2023-01-09T21:10:11.359Z,0.80
2023-01-09T21:12:38.487Z,0.60
2023-01-09T21:15:09.339Z,0.90
2023-01-09T21:17:38.295Z,0.82
2023-01-09T21:20:11.907Z,0.90
2023-01-09T21:22:39.185Z,0.70
2023-01-09T21:25:06.261Z,1.35
2023-01-09T21:27:36.250Z,0.90
2023-01-09T21:30:07.453Z,1.00
2023-01-09T21:32:34.230Z,1.65
2023-01-09T21:35:05.200Z,0.87
2023-01-09T21:37:34.524Z,1.33
2023-01-09T21:40:01.608Z,1.00
2023-01-09T21:42:46.808Z,0.90
2023-01-09T21:45:36.213Z,1.10
2023-01-09T21:48:04.225Z,0.97
2023-01-09T21:50:30.822Z,1.20
2023-01-09T21:52:57.319Z,1.13
2023-01-09T21:55:23.870Z,0.95
2023-01-09T21:57:55.853Z,0.60
2023-01-09T22:00:23.459Z,1.27
2023-01-09T22:02:50.726Z,1.55
2023-01-09T22:05:17.537Z,0.80
2023-01-09T22:07:46.836Z,0.68
2023-01-09T22:10:13.487Z,1.40
2023-01-09T22:13:26.527Z,1.03
2023-01-09T22:15:55.282Z,0.65
2023-01-09T22:18:25.388Z,0.90
2023-01-09T22:20:51.914Z,0.82
2023-01-09T22:23:20.553Z,0.80
2023-01-09T22:25:47.499Z,0.90
2023-01-09T22:28:14.071Z,1.40
2023-01-09T22:30:41.759Z,2.08
2023-01-09T22:33:11.169Z,0.70
2023-01-09T22:35:39.205Z,0.50
2023-01-09T22:38:05.747Z,0.60
2023-01-09T22:40:32.908Z,0.70
2023-01-09T22:42:59.796Z,0.60
2023-01-09T22:45:26.417Z,0.68
2023-01-09T22:47:52.910Z,0.60
2023-01-09T22:50:19.971Z,0.70
2023-01-09T22:52:48.488Z,0.80
2023-01-09T22:55:15.663Z,0.98
2023-01-09T22:57:42.112Z,0.47
2023-01-09T23:00:10.142Z,1.08
2023-01-09T23:02:36.860Z,0.80
2023-01-09T23:05:03.691Z,0.68
2023-01-09T23:07:30.133Z,0.90
2023-01-09T23:10:00.368Z,0.80
2023-01-09T23:12:26.901Z,0.82
2023-01-09T23:14:53.751Z,1.00
2023-01-09T23:17:20.241Z,0.75
2023-01-09T23:19:46.823Z,0.50
2023-01-09T23:22:13.377Z,0.55
2023-01-09T23:24:40.036Z,0.98
2023-01-09T23:27:07.684Z,0.90
2023-01-09T23:29:39.292Z,0.52
2023-01-09T23:32:06.704Z,0.70
2023-01-09T23:34:33.816Z,1.08
2023-01-09T23:37:00.723Z,0.88
2023-01-09T23:39:27.310Z,0.90
2023-01-09T23:42:12.903Z,0.50
2023-01-09T23:44:39.461Z,0.85
2023-01-09T23:47:06.036Z,0.40
2023-01-09T23:49:32.687Z,0.80
2023-01-09T23:52:01.728Z,0.80
2023-01-09T23:54:28.829Z,0.50
2023-01-09T23:56:56.586Z,1.00
2023-01-09T23:59:23.505Z,0.95
